This is the latest recevied weather packets stored in our database for station/object KE8URB. If no packets are shown the sender has not sent any weather packets the latest 10 day(s).
| Time | Temp. | Humidity | Pressure | Rain* | Wind** | Luminosity | Snow |
|---|---|---|---|---|---|---|---|
| 1788042407 | 26.67° C | 58% | 1021.8 hPa | 0 mm | - | 59 W/m² | - |
| 1788042102 | 27.22° C | 56% | 1021.7 hPa | 0 mm | - | 53 W/m² | - |
| 1788041798 | 27.22° C | 55% | 1021.8 hPa | 0 mm | - | 149 W/m² | - |
| 1788041493 | 27.22° C | 53% | 1021.6 hPa | 0 mm | - | 196 W/m² | - |
| 1788041188 | 27.22° C | 56% | 1021.9 hPa | 0 mm | - | 178 W/m² | - |
| 1788040887 | 26.67° C | 56% | 1021.8 hPa | 0 mm | - | 184 W/m² | - |
| 1788040585 | 26.67° C | 56% | 1021.9 hPa | 0 mm | - | 128 W/m² | - |
| 1788040281 | 26.67° C | 55% | 1022 hPa | 0 mm | - | 145 W/m² | - |
| 1788039981 | 26.67° C | 54% | 1021.9 hPa | 0 mm | - | 144 W/m² | - |
| 1788039676 | 27.22° C | 56% | 1021.8 hPa | 0 mm | - | 240 W/m² | - |
| 1788039371 | 26.67° C | 56% | 1021.9 hPa | 0 mm | - | 244 W/m² | - |
| 1788039067 | 26.11° C | 58% | 1021.9 hPa | 0 mm | - | 183 W/m² | - |
| 1788038762 | 26.11° C | 58% | 1022 hPa | 0 mm | - | 113 W/m² | - |
| 1788038461 | 26.11° C | 59% | 1021.8 hPa | 0 mm | - | 101 W/m² | - |
| 1788038156 | 26.11° C | 59% | 1022.1 hPa | 0 mm | - | 104 W/m² | - |
| 1788037856 | 26.67° C | 59% | 1022 hPa | 0 mm | - | 111 W/m² | - |
| 1788037550 | 26.67° C | 58% | 1022.1 hPa | 0 mm | - | 127 W/m² | - |
| 1788037246 | 26.67° C | 56% | 1022.1 hPa | 0 mm | - | 161 W/m² | - |
| 1788036945 | 27.22° C | 56% | 1022.1 hPa | 0 mm | - | 195 W/m² | - |
| 1788036642 | 27.22° C | 54% | 1021.9 hPa | 0 mm | - | 255 W/m² | - |
| 1788036337 | 27.22° C | 57% | 1022.1 hPa | 0 mm | - | 288 W/m² | - |
| 1788036037 | 27.22° C | 55% | 1021.9 hPa | 0 mm | - | 367 W/m² | - |
| 1788035737 | 27.78° C | 56% | 1022.2 hPa | 0 mm | - | 331 W/m² | - |
| 1788035432 | 27.78° C | 54% | 1022 hPa | 0 mm | - | 416 W/m² | - |
| 1788035127 | 27.78° C | 54% | 1022.1 hPa | 0 mm | - | 425 W/m² | - |
* Rain latest hour (hover to see other rain measurements)
** Current wind speed in m/s (hover to see current wind gust speed)